Time;durP1;ratioP1;P1;durP2;ratioP2;P2;SDS_P1;SDS_P2;PMS_P1;PMS_P2;Temp;Humidity;BMP_temperature;BMP_pressure;BME280_temperature;BME280_humidity;BME280_pressure;Samples;Min_cycle;Max_cycle;Signal;HPM_P1;HPM_P2
2022/05/13 00:01:21;;;;;;;5.70;2.70;;;9.70;99.90;;;;;;5079494;28;20492;-65
2022/05/13 00:03:46;;;;;;;;;;;9.70;99.90;;;;;;5081392;28;20040;-65
2022/05/13 00:06:12;;;;;;;6.57;2.58;;;9.70;99.90;;;;;;5080996;28;20299;-66
2022/05/13 00:08:38;;;;;;;;;;;9.70;99.90;;;;;;5080328;28;20036;-66
2022/05/13 00:11:05;;;;;;;8.43;3.42;;;9.60;99.90;;;;;;5079743;28;19920;-65
2022/05/13 00:13:31;;;;;;;4.82;2.70;;;9.70;99.90;;;;;;5080436;28;20090;-66
2022/05/13 00:15:57;;;;;;;5.78;2.80;;;9.70;99.90;;;;;;5080639;28;20127;-66
2022/05/13 00:18:23;;;;;;;;;;;9.70;99.90;;;;;;5070681;28;20712;-66
2022/05/13 00:20:48;;;;;;;8.20;2.80;;;9.70;99.90;;;;;;5066045;28;20016;-66
2022/05/13 00:23:14;;;;;;;;;;;9.70;99.90;;;;;;5066563;28;20042;-66
2022/05/13 00:25:41;;;;;;;5.20;2.58;;;9.60;99.90;;;;;;5066730;28;20665;-66
2022/05/13 00:28:08;;;;;;;7.57;3.08;;;9.70;99.90;;;;;;5066714;28;20072;-66
2022/05/13 00:30:36;;;;;;;7.18;3.00;;;9.60;99.90;;;;;;5065786;28;20048;-66
2022/05/13 00:33:02;;;;;;;7.85;2.80;;;9.60;99.90;;;;;;5066645;28;20403;-67
2022/05/13 00:35:27;;;;;;;;;;;9.40;99.90;;;;;;5066971;28;20123;-67
2022/05/13 00:37:53;;;;;;;6.93;3.03;;;9.40;99.90;;;;;;5065961;28;19916;-66
2022/05/13 00:40:20;;;;;;;;;;;9.40;99.90;;;;;;5062908;28;20477;-66
2022/05/13 00:42:47;;;;;;;12.65;2.92;;;9.30;99.90;;;;;;5060030;28;20567;-67
2022/05/13 00:45:14;;;;;;;6.45;2.85;;;9.30;99.90;;;;;;5059701;28;20052;-66
2022/05/13 00:47:40;;;;;;;5.22;3.40;;;9.40;99.90;;;;;;5063439;28;20119;-66
2022/05/13 00:50:08;;;;;;;5.13;2.97;;;9.40;99.90;;;;;;5058042;28;20032;-68
2022/05/13 00:52:36;;;;;;;11.48;3.47;;;9.30;99.90;;;;;;5057900;28;20132;-66
2022/05/13 00:55:08;;;;;;;6.78;2.65;;;9.30;99.90;;;;;;5054239;28;20497;-66
2022/05/13 00:57:37;;;;;;;10.23;3.78;;;9.30;99.90;;;;;;5061730;28;20057;-66
2022/05/13 01:00:08;;;;;;;8.02;3.15;;;9.20;99.90;;;;;;5065018;28;20048;-66
2022/05/13 01:02:35;;;;;;;8.48;3.00;;;9.30;99.90;;;;;;5062759;28;20051;-67
2022/05/13 01:05:05;;;;;;;7.88;3.13;;;9.30;99.90;;;;;;5065504;28;20884;-66
2022/05/13 01:07:32;;;;;;;3.90;2.75;;;9.30;99.90;;;;;;5064467;28;20251;-66
2022/05/13 01:10:00;;;;;;;8.32;3.42;;;9.30;99.90;;;;;;5064715;28;20055;-66
2022/05/13 01:12:39;;;;;;;7.93;3.53;;;9.30;99.90;;;;;;5065138;28;20539;-66
2022/05/13 01:15:10;;;;;;;6.50;3.30;;;9.20;99.90;;;;;;5065876;28;20044;-66
2022/05/13 01:20:29;;;;;;;4.90;2.88;;;9.20;99.90;;;;;;5064638;28;20044;-67
2022/05/13 01:23:01;;;;;;;10.25;3.50;;;9.20;99.90;;;;;;5065876;28;20033;-66
2022/05/13 01:25:29;;;;;;;9.25;3.72;;;9.20;99.90;;;;;;5065756;28;20093;-66
2022/05/13 01:28:04;;;;;;;6.65;2.92;;;9.10;99.90;;;;;;5060247;28;20579;-66
2022/05/13 01:30:30;;;;;;;8.13;3.38;;;9.10;99.90;;;;;;5054315;28;20041;-66
2022/05/13 01:32:56;;;;;;;;;;;9.00;99.90;;;;;;5066436;28;20067;-67
2022/05/13 01:35:22;;;;;;;6.43;3.30;;;9.00;99.90;;;;;;5066881;28;19981;-66
2022/05/13 01:37:48;;;;;;;7.85;3.13;;;9.00;99.90;;;;;;5066129;28;20037;-67
2022/05/13 01:40:14;;;;;;;6.53;3.20;;;9.00;99.90;;;;;;5061824;28;20041;-66
2022/05/13 01:42:40;;;;;;;;;;;9.00;99.90;;;;;;5065378;28;20178;-66
2022/05/13 01:45:07;;;;;;;4.57;3.13;;;9.00;99.90;;;;;;5066072;28;20295;-66
2022/05/13 01:47:34;;;;;;;6.50;3.50;;;9.00;99.90;;;;;;5065293;28;20048;-66
2022/05/13 01:50:01;;;;;;;5.47;3.20;;;9.00;99.90;;;;;;5064949;28;20489;-66
2022/05/13 01:52:26;;;;;;;7.57;3.03;;;9.00;99.90;;;;;;5064688;28;20039;-66
2022/05/13 01:54:52;;;;;;;;;;;9.00;99.90;;;;;;5059763;28;20029;-66
2022/05/13 01:57:18;;;;;;;8.27;3.35;;;8.90;99.90;;;;;;5058745;28;19978;-67
2022/05/13 01:59:44;;;;;;;6.07;3.28;;;8.80;99.90;;;;;;5065210;28;20125;-66
2022/05/13 02:02:09;;;;;;;;;;;8.80;99.90;;;;;;5064057;28;20082;-66
2022/05/13 02:04:35;;;;;;;16.55;3.90;;;8.90;99.90;;;;;;5064620;28;19952;-66
2022/05/13 02:07:00;;;;;;;;;;;8.90;99.90;;;;;;5065584;28;20052;-66
2022/05/13 02:09:26;;;;;;;14.48;3.30;;;8.90;99.90;;;;;;5065186;28;19924;-66
2022/05/13 02:11:52;;;;;;;;;;;8.80;99.90;;;;;;5064336;28;20051;-66
2022/05/13 02:14:18;;;;;;;7.57;3.42;;;8.90;99.90;;;;;;5065404;28;19922;-66
2022/05/13 02:16:44;;;;;;;8.70;3.88;;;8.90;99.90;;;;;;5064266;28;20504;-66
2022/05/13 02:19:10;;;;;;;;;;;8.90;99.90;;;;;;5066700;28;20036;-66
2022/05/13 02:21:37;;;;;;;8.23;3.45;;;8.90;99.90;;;;;;5064860;28;20363;-66
2022/05/13 02:24:03;;;;;;;9.23;3.88;;;8.80;99.90;;;;;;5065376;28;20634;-66
2022/05/13 02:26:29;;;;;;;9.70;4.00;;;8.80;99.90;;;;;;5064688;28;20119;-66
2022/05/13 02:28:54;;;;;;;;;;;8.70;99.90;;;;;;5065511;28;20127;-66
2022/05/13 02:31:20;;;;;;;9.52;3.50;;;8.70;99.90;;;;;;5063473;28;19916;-66
2022/05/13 02:33:46;;;;;;;;;;;8.70;99.90;;;;;;5064755;28;20124;-66
2022/05/13 02:36:13;;;;;;;8.30;3.00;;;8.60;99.90;;;;;;5064810;28;20015;-66
2022/05/13 02:38:40;;;;;;;12.48;4.13;;;8.60;99.90;;;;;;5064797;28;20033;-66
2022/05/13 02:41:11;;;;;;;10.95;4.40;;;8.70;99.90;;;;;;5063166;28;20042;-66
2022/05/13 02:43:48;;;;;;;12.00;4.38;;;8.70;99.90;;;;;;5064043;28;20710;-66
2022/05/13 02:46:27;;;;;;;10.07;4.10;;;8.80;99.90;;;;;;5064533;28;20115;-66
2022/05/13 02:48:54;;;;;;;12.05;4.47;;;8.70;99.90;;;;;;5044493;28;20041;-66
2022/05/13 02:51:20;;;;;;;14.88;4.90;;;8.80;99.90;;;;;;5047233;28;20492;-66
2022/05/13 02:53:46;;;;;;;8.10;4.47;;;8.80;99.90;;;;;;5064275;28;20040;-67
2022/05/13 02:56:12;;;;;;;;;;;8.80;99.90;;;;;;5049645;28;20123;-66
2022/05/13 02:58:39;;;;;;;7.53;4.55;;;8.80;99.90;;;;;;5064469;28;20061;-67
2022/05/13 03:01:07;;;;;;;16.23;5.80;;;8.80;99.90;;;;;;5062337;28;20428;-67
2022/05/13 03:03:33;;;;;;;9.75;4.60;;;8.70;99.90;;;;;;5060126;28;20527;-67
2022/05/13 03:05:59;;;;;;;8.73;5.00;;;8.80;99.90;;;;;;5063670;28;20061;-67
2022/05/13 03:08:25;;;;;;;;;;;8.80;99.90;;;;;;5065058;28;20040;-67
2022/05/13 03:10:51;;;;;;;8.13;4.25;;;8.70;99.90;;;;;;5066138;28;20003;-67
2022/05/13 03:13:18;;;;;;;;;;;8.70;99.90;;;;;;5064475;28;20416;-67
2022/05/13 03:15:44;;;;;;;12.57;5.60;;;8.70;99.90;;;;;;5063702;28;20376;-67
2022/05/13 03:18:10;;;;;;;9.52;5.13;;;8.70;99.90;;;;;;5064038;28;20040;-67
2022/05/13 03:20:36;;;;;;;;;;;8.70;99.90;;;;;;5066317;28;20055;-67
2022/05/13 03:23:02;;;;;;;9.75;4.68;;;8.60;99.90;;;;;;5064231;28;19963;-67
2022/05/13 03:25:28;;;;;;;10.23;4.47;;;8.50;99.90;;;;;;5061550;28;20044;-67
2022/05/13 03:27:53;;;;;;;;;;;8.60;99.90;;;;;;5063971;28;20033;-67
2022/05/13 03:30:22;;;;;;;7.75;3.78;;;8.50;99.90;;;;;;5060874;28;19920;-67
2022/05/13 03:32:48;;;;;;;8.77;4.55;;;8.50;99.90;;;;;;5063158;28;20036;-66
2022/05/13 03:35:14;;;;;;;;;;;8.50;99.90;;;;;;5062118;28;20032;-67
2022/05/13 03:37:40;;;;;;;12.02;4.82;;;8.40;99.90;;;;;;5064026;28;20380;-68
2022/05/13 03:40:05;;;;;;;;;;;8.20;99.90;;;;;;5059526;28;20086;-70
2022/05/13 03:42:31;;;;;;;10.18;4.30;;;8.20;99.90;;;;;;5056482;28;19917;-68
2022/05/13 03:44:57;;;;;;;;;;;8.20;99.90;;;;;;5053270;28;20041;-68
2022/05/13 03:47:22;;;;;;;6.43;4.05;;;8.10;99.90;;;;;;5053503;28;20125;-71
2022/05/13 03:49:48;;;;;;;;;;;8.20;99.90;;;;;;5058840;28;20098;-69
2022/05/13 03:52:14;;;;;;;10.65;4.45;;;8.20;99.90;;;;;;5052975;28;20007;-69
2022/05/13 03:54:40;;;;;;;8.40;4.50;;;8.20;99.90;;;;;;5059475;28;20041;-69
2022/05/13 03:57:06;;;;;;;;;;;8.20;99.90;;;;;;5055084;28;20594;-69
2022/05/13 03:59:33;;;;;;;11.43;4.70;;;8.20;99.90;;;;;;5059476;28;19916;-71
2022/05/13 04:01:59;;;;;;;10.90;4.60;;;8.20;99.90;;;;;;5056389;28;20036;-68
2022/05/13 04:04:27;;;;;;;;;;;8.20;99.90;;;;;;5062033;28;20401;-68
2022/05/13 04:09:37;;;;;;;8.60;4.70;;;8.10;99.90;;;;;;5058987;28;20036;-67
2022/05/13 04:17:31;;;;;;;8.27;4.28;;;8.50;99.90;;;;;;5067228;28;20040;-67
2022/05/13 04:19:57;;;;;;;;;;;8.50;99.90;;;;;;5067987;28;20051;-67
2022/05/13 04:22:25;;;;;;;14.40;4.38;;;9.10;99.90;;;;;;5067260;28;19920;-67
2022/05/13 04:24:52;;;;;;;7.68;4.00;;;9.50;99.90;;;;;;5067087;28;20044;-66
2022/05/13 04:27:18;;;;;;;12.43;4.55;;;9.30;99.90;;;;;;5067220;28;20102;-64
2022/05/13 04:29:44;;;;;;;13.18;4.38;;;9.20;99.90;;;;;;5066570;28;20036;-66
2022/05/13 04:32:10;;;;;;;;;;;9.10;99.90;;;;;;5065704;28;20047;-66
2022/05/13 04:34:36;;;;;;;9.13;3.80;;;9.20;99.90;;;;;;5066058;28;19939;-67
2022/05/13 04:37:02;;;;;;;;;;;9.30;99.90;;;;;;5068009;28;20036;-67
2022/05/13 04:39:28;;;;;;;12.00;4.57;;;9.30;99.90;;;;;;5067360;28;20372;-63
2022/05/13 04:44:39;;;;;;;12.65;4.20;;;9.30;99.90;;;;;;5066812;28;20037;-66
2022/05/13 04:48:15;;;;;;;11.88;4.03;;;9.50;99.90;;;;;;5068375;28;20046;-66
2022/05/13 04:49:52;;;;;;;;;;;10.10;99.90;;;;;;5067987;28;20040;-67
2022/05/13 04:52:17;;;;;;;7.05;3.05;;;10.80;99.90;;;;;;5066794;28;19927;-66
2022/05/13 04:54:43;;;;;;;;;;;10.90;99.90;;;;;;5068399;28;20050;-67
2022/05/13 04:57:08;;;;;;;;;;;10.70;99.90;;;;;;5067559;28;19924;-70
2022/05/13 04:59:34;;;;;;;;;;;10.70;99.90;;;;;;5067016;28;20019;-68
2022/05/13 05:01:59;;;;;;;;;;;10.60;99.90;;;;;;5066074;28;19951;-66
2022/05/13 05:04:25;;;;;;;;;;;10.80;99.90;;;;;;5067861;28;20526;-67
2022/05/13 05:06:50;;;;;;;;;;;11.20;99.90;;;;;;5068415;28;20046;-67
2022/05/13 05:09:16;;;;;;;;;;;11.90;99.90;;;;;;5066881;28;19924;-67
2022/05/13 05:11:41;;;;;;;;;;;12.30;99.90;;;;;;5065253;28;20497;-67
2022/05/13 05:14:07;;;;;;;;;;;12.50;99.90;;;;;;5067300;28;20363;-66
2022/05/13 05:16:33;;;;;;;;;;;12.70;99.90;;;;;;5063846;28;19943;-66
2022/05/13 05:18:59;;;;;;;;;;;12.80;99.90;;;;;;5065972;28;19917;-66
2022/05/13 05:21:25;;;;;;;;;;;13.30;99.50;;;;;;5063490;28;20422;-66
2022/05/13 05:23:51;;;;;;;;;;;13.40;98.50;;;;;;5064613;28;19924;-67
2022/05/13 05:26:17;;;;;;;;;;;13.60;99.20;;;;;;5061344;28;19931;-65
2022/05/13 05:28:42;;;;;;;;;;;13.70;96.80;;;;;;5063667;28;19920;-66
2022/05/13 05:31:09;;;;;;;;;;;13.70;96.40;;;;;;5064175;28;19921;-66
2022/05/13 05:33:35;;;;;;;;;;;13.90;96.20;;;;;;5057772;28;20430;-66
2022/05/13 05:36:00;;;;;;;;;;;14.00;96.30;;;;;;5065296;28;19955;-66
2022/05/13 05:38:26;;;;;;;;;;;14.00;96.10;;;;;;5066337;28;19960;-66
2022/05/13 05:40:52;;;;;;;;;;;13.30;96.00;;;;;;5063156;28;20515;-66
2022/05/13 05:43:17;;;;;;;;;;;13.10;97.10;;;;;;5060391;28;19916;-66
2022/05/13 05:45:43;;;;;;;;;;;12.80;97.40;;;;;;5065181;28;20368;-66
2022/05/13 05:48:10;;;;;;;;;;;12.50;98.00;;;;;;5066366;28;20379;-66
2022/05/13 05:50:36;;;;;;;;;;;12.30;97.70;;;;;;5066360;28;19927;-66
2022/05/13 05:53:01;;;;;;;;;;;12.10;98.10;;;;;;5065637;28;19939;-66
2022/05/13 05:58:14;;;;;;;;;;;11.60;98.00;;;;;;5061043;28;20380;-65
2022/05/13 06:00:43;;;;;;;;;;;11.50;98.40;;;;;;5057711;28;19923;-65
2022/05/13 06:03:09;;;;;;;;;;;11.40;99.00;;;;;;5066394;28;20007;-65
2022/05/13 06:05:35;;;;;;;;;;;11.40;99.00;;;;;;5065700;28;20368;-65
2022/05/13 06:08:01;;;;;;;;;;;11.30;98.70;;;;;;5061045;28;20392;-65
2022/05/13 06:10:27;;;;;;;;;;;11.30;98.70;;;;;;5065034;28;20372;-65
2022/05/13 06:12:53;;;;;;;;;;;11.50;98.30;;;;;;5062688;28;19936;-65
2022/05/13 06:15:19;;;;;;;;;;;11.70;98.30;;;;;;5059456;28;19920;-65
2022/05/13 06:17:45;;;;;;;;;;;12.00;97.80;;;;;;5061644;28;19920;-65
2022/05/13 06:20:12;;;;;;;;;;;12.40;97.40;;;;;;5064354;28;19935;-64
2022/05/13 06:22:37;;;;;;;;;;;12.60;96.10;;;;;;5064456;28;19920;-65
2022/05/13 06:25:04;;;;;;;;;;;13.40;95.50;;;;;;5065706;28;19927;-65
2022/05/13 06:27:29;;;;;;;;;;;14.70;93.40;;;;;;5059864;28;19925;-66
2022/05/13 06:29:55;;;;;;;;;;;16.20;89.60;;;;;;5065966;28;19920;-66
2022/05/13 06:32:20;;;;;;;;;;;17.10;85.80;;;;;;5063097;28;19924;-65
2022/05/13 06:34:46;;;;;;;;;;;16.20;87.10;;;;;;5065393;28;19916;-65
2022/05/13 06:37:11;;;;;;;;;;;15.60;88.10;;;;;;5064702;28;20384;-65
2022/05/13 06:39:37;;;;;;;;;;;15.20;90.50;;;;;;5064100;28;19938;-65
2022/05/13 06:42:03;;;;;;;;;;;14.30;91.00;;;;;;5065441;28;19921;-65
2022/05/13 06:44:28;;;;;;;;;;;14.20;91.60;;;;;;5065770;28;19916;-64
2022/05/13 06:46:53;;;;;;;;;;;13.80;92.60;;;;;;5065061;28;21331;-65
2022/05/13 06:49:19;;;;;;;;;;;14.30;92.80;;;;;;5066273;28;19981;-64
2022/05/13 06:51:44;;;;;;;;;;;14.40;92.30;;;;;;5066037;28;20376;-65
2022/05/13 06:54:11;;;;;;;;;;;14.10;92.40;;;;;;5066024;28;19920;-65
2022/05/13 06:56:37;;;;;;;;;;;14.00;93.00;;;;;;5060140;28;19917;-65
2022/05/13 06:59:04;;;;;;;;;;;14.10;93.40;;;;;;5064932;28;20050;-65
2022/05/13 07:01:29;;;;;;;;;;;14.20;92.50;;;;;;5062589;28;20341;-65
2022/05/13 07:03:55;;;;;;;;;;;14.20;93.20;;;;;;5063407;28;19924;-65
2022/05/13 07:06:20;;;;;;;;;;;14.10;93.40;;;;;;5065461;28;20051;-65
2022/05/13 07:08:47;;;;;;;;;;;13.80;93.10;;;;;;5065764;28;20789;-66
2022/05/13 07:11:12;;;;;;;;;;;14.20;93.80;;;;;;5064638;28;19923;-65
2022/05/13 07:13:38;;;;;;;;;;;14.40;93.10;;;;;;5064881;28;19916;-65
2022/05/13 07:16:03;;;;;;;;;;;13.90;93.80;;;;;;5065425;28;19920;-65
2022/05/13 07:18:29;;;;;;;;;;;13.20;95.20;;;;;;5065618;28;19916;-65
2022/05/13 07:20:54;;;;;;;;;;;13.30;95.60;;;;;;5061171;28;19933;-65
2022/05/13 07:23:20;;;;;;;;;;;13.10;96.20;;;;;;5065025;28;19955;-65
2022/05/13 07:25:45;;;;;;;;;;;13.40;96.50;;;;;;5057261;28;20399;-65
2022/05/13 07:28:11;;;;;;;;;;;14.90;94.80;;;;;;5066889;28;19916;-66
2022/05/13 07:30:37;;;;;;;;;;;16.20;92.60;;;;;;5067106;28;20563;-66
2022/05/13 07:33:03;;;;;;;;;;;16.30;91.80;;;;;;5066900;28;20444;-65
2022/05/13 07:35:29;;;;;;;;;;;16.80;91.00;;;;;;5067717;28;19916;-65
2022/05/13 07:37:54;;;;;;;;;;;15.60;92.10;;;;;;5070619;28;19936;-66
2022/05/13 07:43:04;;;;;;;;;;;14.80;93.20;;;;;;5068372;28;20388;-65
2022/05/13 07:45:31;;;;;;;;;;;14.40;94.10;;;;;;5068070;28;19923;-65
2022/05/13 07:47:56;;;;;;;;;;;13.90;95.60;;;;;;5069105;28;20541;-65
2022/05/13 07:50:22;;;;;;;;;;;13.70;95.80;;;;;;5068709;28;19920;-66
2022/05/13 07:52:50;;;;;;;;;;;13.20;96.10;;;;;;5069243;28;19916;-65
2022/05/13 07:55:15;;;;;;;;;;;13.30;96.70;;;;;;5068696;28;19924;-65
2022/05/13 07:57:42;;;;;;;;;;;13.40;97.20;;;;;;5064839;28;20007;-65
2022/05/13 08:00:24;;;;;;;;;;;13.50;95.70;;;;;;5068355;28;19970;-66
2022/05/13 08:02:50;;;;;;;;;;;14.60;94.00;;;;;;5067984;28;19920;-66
2022/05/13 08:05:15;;;;;;;;;;;16.90;90.60;;;;;;5067482;28;19920;-66
2022/05/13 08:07:41;;;;;;;;;;;18.10;86.40;;;;;;5065412;28;19935;-66
2022/05/13 08:10:07;;;;;;;;;;;19.20;77.70;;;;;;5066605;28;19916;-66
2022/05/13 08:12:32;;;;;;;;;;;19.70;78.90;;;;;;5067307;28;20269;-67
2022/05/13 08:14:58;;;;;;;;;;;19.60;77.40;;;;;;5068691;28;19920;-66
2022/05/13 08:17:23;;;;;;;;;;;19.50;72.80;;;;;;5068127;28;20264;-67
2022/05/13 08:19:49;;;;;;;;;;;19.30;73.70;;;;;;5068500;28;20332;-66
2022/05/13 08:22:15;;;;;;;;;;;19.60;73.10;;;;;;5068225;28;19924;-67
2022/05/13 08:24:40;;;;;;;;;;;20.60;73.10;;;;;;5064866;28;19927;-66
2022/05/13 08:27:06;;;;;;;;;;;20.30;67.80;;;;;;5064996;28;19927;-66
2022/05/13 08:29:31;;;;;;;;;;;18.70;71.80;;;;;;5067653;28;19916;-66
2022/05/13 08:31:57;;;;;;;;;;;18.70;73.60;;;;;;5066872;28;19926;-66
2022/05/13 08:34:22;;;;;;;;;;;18.20;71.50;;;;;;5068288;28;19927;-65
2022/05/13 08:36:50;;;;;;;;;;;17.50;76.80;;;;;;5069706;28;20003;-66
2022/05/13 08:39:16;;;;;;;;;;;17.00;78.10;;;;;;5064240;28;19924;-65
2022/05/13 08:42:10;;;;;;;;;;;17.10;80.10;;;;;;5062943;28;19928;-66
2022/05/13 08:44:37;;;;;;;;;;;16.70;78.50;;;;;;5055246;28;19970;-65
2022/05/13 08:47:08;;;;;;;;;;;15.70;78.10;;;;;;5068465;28;20382;-66
2022/05/13 08:49:34;;;;;;;;;;;15.30;83.20;;;;;;5067680;28;20300;-66
2022/05/13 08:55:07;;;;;;;;;;;14.70;83.80;;;;;;5062122;28;19920;-65
2022/05/13 08:57:35;;;;;;;;;;;14.60;83.60;;;;;;5067539;28;19916;-65
2022/05/13 09:00:03;;;;;;;;;;;14.50;86.60;;;;;;5067913;28;20001;-66
2022/05/13 09:02:34;;;;;;;;;;;14.80;84.90;;;;;;5065820;28;19916;-66
2022/05/13 09:05:20;;;;;;;;;;;15.00;84.30;;;;;;5067770;28;19948;-66
2022/05/13 09:07:46;;;;;;;;;;;15.20;85.60;;;;;;5055762;28;20443;-65
2022/05/13 09:10:12;;;;;;;;;;;14.90;83.80;;;;;;5066172;28;19916;-66
2022/05/13 09:12:45;;;;;;;;;;;14.80;82.20;;;;;;5065571;28;19920;-66
2022/05/13 09:15:23;;;;;;;;;;;14.80;84.90;;;;;;5066067;28;20007;-64
2022/05/13 09:18:10;;;;;;;;;;;14.90;84.30;;;;;;5065634;28;19920;-66
2022/05/13 09:20:50;;;;;;;;;;;15.00;84.40;;;;;;5063365;28;19916;-65
2022/05/13 09:23:22;;;;;;;;;;;15.10;83.50;;;;;;5064471;28;19960;-66
2022/05/13 09:26:13;;;;;;;;;;;15.10;84.10;;;;;;5067146;28;19920;-65
2022/05/13 09:28:58;;;;;;;;;;;14.90;84.00;;;;;;5063691;28;20012;-65
2022/05/13 09:31:26;;;;;;;;;;;15.00;85.40;;;;;;5045167;28;19978;-64
2022/05/13 09:33:55;;;;;;;;;;;15.10;83.80;;;;;;5059191;28;19923;-66
2022/05/13 09:36:29;;;;;;;;;;;14.80;79.50;;;;;;5066191;28;19916;-66
2022/05/13 09:39:15;;;;;;;;;;;15.00;83.70;;;;;;5063053;28;19917;-65
2022/05/13 09:41:42;;;;;;;;;;;15.00;85.10;;;;;;5058409;28;20011;-65
2022/05/13 09:44:14;;;;;;;;;;;15.50;83.10;;;;;;5054126;28;19923;-65
2022/05/13 09:46:47;;;;;;;;;;;15.50;78.30;;;;;;5062490;28;19920;-64
2022/05/13 09:49:22;;;;;;;;;;;15.50;80.60;;;;;;5062002;28;19920;-65
2022/05/13 09:52:14;;;;;;;;;;;15.30;80.90;;;;;;5056034;28;20000;-65
2022/05/13 09:54:44;;;;;;;;;;;15.20;81.90;;;;;;5045207;28;20003;-64
2022/05/13 09:57:14;;;;;;;;;;;15.20;81.60;;;;;;5062651;28;19916;-65
2022/05/13 09:59:51;;;;;;;;;;;15.10;82.90;;;;;;5052690;28;19925;-65
2022/05/13 10:02:20;;;;;;;;;;;15.50;82.90;;;;;;5060189;28;19915;-65
2022/05/13 10:04:51;;;;;;;;;;;15.80;82.50;;;;;;5059571;28;20019;-65
2022/05/13 10:07:21;;;;;;;;;;;15.80;81.60;;;;;;5052973;28;19921;-64
2022/05/13 10:15:34;;;;;;;;;;;16.10;74.70;;;;;;5063426;28;19916;-66
2022/05/13 10:18:02;;;;;;;;;;;15.70;76.40;;;;;;5065790;28;19924;-65
2022/05/13 10:20:32;;;;;;;;;;;15.70;76.30;;;;;;5066093;28;19963;-65
2022/05/13 10:23:04;;;;;;;;;;;15.40;77.10;;;;;;5067781;28;19920;-66
2022/05/13 10:25:32;;;;;;;;;;;15.50;80.10;;;;;;5066290;28;19921;-65
2022/05/13 10:28:02;;;;;;;;;;;15.50;77.70;;;;;;5055084;28;19966;-66
2022/05/13 10:30:47;;;;;;;;;;;15.60;77.70;;;;;;5064593;28;19978;-65
2022/05/13 10:33:22;;;;;;;;;;;15.30;77.10;;;;;;5065849;28;19916;-65
2022/05/13 10:35:57;;;;;;;;;;;15.40;78.60;;;;;;5063431;28;19928;-64
2022/05/13 10:38:38;;;;;;;;;;;15.40;78.00;;;;;;5061231;28;20376;-65
2022/05/13 10:41:12;;;;;;;;;;;15.80;80.90;;;;;;5062889;28;19927;-65
2022/05/13 10:43:41;;;;;;;;;;;15.80;77.00;;;;;;5061858;28;19926;-65
2022/05/13 10:46:12;;;;;;;;;;;15.50;76.00;;;;;;5064225;28;19926;-65
2022/05/13 10:48:38;;;;;;;;;;;15.40;76.80;;;;;;5062173;28;19916;-65
2022/05/13 10:51:11;;;;;;;;;;;15.70;76.10;;;;;;5064361;28;19955;-68
2022/05/13 10:53:43;;;;;;;;;;;15.70;76.30;;;;;;5058149;28;19959;-68
2022/05/13 10:56:17;;;;;;;;;;;15.40;77.00;;;;;;5064206;28;19921;-68
2022/05/13 10:58:49;;;;;;;;;;;15.70;75.50;;;;;;5060520;28;20011;-68
2022/05/13 11:01:24;;;;;;;;;;;15.90;76.20;;;;;;5058677;28;19935;-66
2022/05/13 11:03:50;;;;;;;;;;;16.00;75.10;;;;;;5059399;28;19943;-66
2022/05/13 11:06:34;;;;;;;;;;;15.90;73.80;;;;;;5058179;28;20358;-68
2022/05/13 11:09:18;;;;;;;;;;;15.90;76.20;;;;;;5061480;28;20022;-65
2022/05/13 11:11:45;;;;;;;;;;;15.40;77.10;;;;;;5061354;28;19924;-68
2022/05/13 11:14:20;;;;;;;;;;;15.50;79.30;;;;;;5064971;28;19927;-68
2022/05/13 11:16:53;;;;;;;;;;;15.40;78.40;;;;;;5059484;28;19920;-69
2022/05/13 11:19:31;;;;;;;;;;;15.30;75.70;;;;;;5062512;28;20089;-65
2022/05/13 11:21:56;;;;;;;;;;;15.10;78.40;;;;;;5063088;28;20010;-65
2022/05/13 11:27:19;;;;;;;;;;;15.60;78.40;;;;;;5059368;28;19951;-65
2022/05/13 11:29:50;;;;;;;;;;;16.00;76.90;;;;;;5063880;28;20283;-66
2022/05/13 11:32:25;;;;;;;;;;;16.10;74.60;;;;;;5061261;28;19931;-65
2022/05/13 11:35:15;;;;;;;;;;;16.30;75.40;;;;;;5064728;28;20399;-65
2022/05/13 11:37:42;;;;;;;;;;;16.30;76.10;;;;;;5045474;28;19921;-65
2022/05/13 11:40:07;;;;;;;;;;;16.10;74.50;;;;;;5051304;28;20014;-65
2022/05/13 11:45:50;;;;;;;;;;;16.00;76.00;;;;;;5064923;28;19916;-65
2022/05/13 11:48:15;;;;;;;;;;;16.30;74.10;;;;;;5064400;28;19989;-65
2022/05/13 11:50:41;;;;;;;;;;;16.00;79.70;;;;;;5064199;28;19920;-65
2022/05/13 11:53:06;;;;;;;;;;;15.90;77.30;;;;;;5057411;28;19927;-65
2022/05/13 11:55:35;;;;;;;;;;;15.90;76.40;;;;;;5064355;28;20444;-64
2022/05/13 11:58:00;;;;;;;;;;;15.80;76.10;;;;;;5064671;28;19924;-65
2022/05/13 12:00:38;;;;;;;;;;;15.80;77.60;;;;;;5062980;28;20406;-65
2022/05/13 12:03:09;;;;;;;;;;;15.80;76.00;;;;;;5051404;28;20689;-65
2022/05/13 12:05:48;;;;;;;;;;;15.60;77.10;;;;;;5064686;28;19927;-66
2022/05/13 12:08:20;;;;;;;;;;;15.70;77.00;;;;;;5044425;28;19923;-66
2022/05/13 12:11:04;;;;;;;;;;;15.70;75.80;;;;;;5049791;28;19950;-65
2022/05/13 12:13:30;;;;;;;;;;;15.80;75.50;;;;;;5065478;28;19961;-65
2022/05/13 12:15:55;;;;;;;;;;;15.80;79.30;;;;;;5065897;28;19921;-65
2022/05/13 12:18:34;;;;;;;;;;;15.80;77.20;;;;;;5068353;28;19916;-65
2022/05/13 12:21:03;;;;;;;;;;;15.70;79.30;;;;;;5067408;28;19920;-65
2022/05/13 12:23:47;;;;;;;;;;;16.00;77.60;;;;;;5068312;28;20522;-66
2022/05/13 12:26:12;;;;;;;;;;;16.00;76.70;;;;;;5066596;28;20018;-65
2022/05/13 12:28:40;;;;;;;;;;;15.80;78.10;;;;;;5064169;28;20015;-66
2022/05/13 12:31:32;;;;;;;;;;;16.00;78.00;;;;;;5051881;28;19927;-67
2022/05/13 12:39:53;;;;;;;;;;;16.00;76.90;;;;;;5068160;28;20316;-65
2022/05/13 12:42:34;;;;;;;;;;;15.80;79.60;;;;;;5066983;28;19974;-65
2022/05/13 12:45:00;;;;;;;;;;;15.90;78.60;;;;;;5067480;28;19929;-66
2022/05/13 12:47:27;;;;;;;;;;;15.90;77.50;;;;;;5067744;28;20008;-66
2022/05/13 12:49:53;;;;;;;;;;;15.90;76.40;;;;;;5067688;28;20062;-65
2022/05/13 12:52:23;;;;;;;;;;;16.00;76.90;;;;;;5066898;28;20665;-66
2022/05/13 12:54:51;;;;;;;;;;;15.80;78.40;;;;;;5061869;28;19921;-66
2022/05/13 12:57:27;;;;;;;;;;;16.00;78.70;;;;;;5058754;28;19927;-65
2022/05/13 12:59:54;;;;;;;;;;;16.30;78.10;;;;;;5067456;28;19931;-64
2022/05/13 13:02:27;;;;;;;;;;;16.40;76.30;;;;;;5066726;28;20591;-65
2022/05/13 13:05:02;;;;;;;;;;;16.60;79.00;;;;;;5067957;28;19952;-65
2022/05/13 13:07:28;;;;;;;;;;;16.50;78.70;;;;;;5067101;28;19921;-65
2022/05/13 13:09:54;;;;;;;;;;;16.20;77.50;;;;;;5067166;28;19920;-66
2022/05/13 13:12:19;;;;;;;;;;;16.10;78.00;;;;;;5066168;28;19920;-65
2022/05/13 13:15:03;;;;;;;;;;;15.90;78.30;;;;;;5064959;28;19943;-66
2022/05/13 13:17:34;;;;;;;;;;;16.00;77.30;;;;;;5067375;28;19977;-65
2022/05/13 13:20:01;;;;;;;;;;;15.60;77.30;;;;;;5065728;28;19966;-65
2022/05/13 13:22:33;;;;;;;;;;;15.80;79.80;;;;;;5066543;28;19962;-65
2022/05/13 13:24:59;;;;;;;;;;;16.10;81.70;;;;;;5068153;28;19959;-65
2022/05/13 13:27:28;;;;;;;;;;;16.40;79.00;;;;;;5065303;28;19963;-66
2022/05/13 13:29:54;;;;;;;;;;;16.50;79.00;;;;;;5066958;28;20505;-64
2022/05/13 13:32:21;;;;;;;;;;;16.60;74.30;;;;;;5065634;28;20356;-66
2022/05/13 13:34:49;;;;;;;;;;;16.60;77.30;;;;;;5067317;28;20367;-65
2022/05/13 13:37:15;;;;;;;;;;;16.90;75.80;;;;;;5066781;28;20269;-66
2022/05/13 13:39:41;;;;;;;;;;;16.80;76.10;;;;;;5063500;28;20323;-65
2022/05/13 13:42:11;;;;;;;;;;;17.10;74.60;;;;;;5066104;28;19916;-65
2022/05/13 13:44:38;;;;;;;;;;;17.30;74.00;;;;;;5066294;28;19926;-66
2022/05/13 13:47:06;;;;;;;;;;;17.00;75.00;;;;;;5066249;28;19924;-65
2022/05/13 13:49:33;;;;;;;;;;;17.10;76.40;;;;;;5066792;28;19916;-65
2022/05/13 13:52:00;;;;;;;;;;;17.30;77.20;;;;;;5065988;28;19931;-65
2022/05/13 13:54:31;;;;;;;;;;;17.30;74.80;;;;;;5065472;28;19959;-65
2022/05/13 13:57:04;;;;;;;;;;;17.30;74.80;;;;;;5053479;28;19923;-65
2022/05/13 13:59:48;;;;;;;;;;;17.30;74.60;;;;;;5066023;28;19920;-65
2022/05/13 14:02:28;;;;;;;;;;;17.30;75.40;;;;;;5064573;28;20445;-65
2022/05/13 14:04:54;;;;;;;;;;;17.00;76.60;;;;;;5065756;28;19920;-65
2022/05/13 14:07:20;;;;;;;;;;;17.10;74.40;;;;;;5064879;28;20297;-65
2022/05/13 14:09:46;;;;;;;;;;;16.90;78.00;;;;;;5066217;28;20407;-65
2022/05/13 14:12:14;;;;;;;;;;;16.90;78.40;;;;;;5065041;28;20383;-65
2022/05/13 14:14:41;;;;;;;;;;;17.00;77.00;;;;;;5066048;28;20015;-66
2022/05/13 14:17:07;;;;;;;;;;;17.00;78.30;;;;;;5066015;28;19930;-65
2022/05/13 14:19:38;;;;;;;;;;;17.00;75.20;;;;;;5066055;28;19951;-65
2022/05/13 14:22:05;;;;;;;;;;;17.00;77.00;;;;;;5065125;28;19920;-66
2022/05/13 14:24:38;;;;;;;;;;;17.20;76.10;;;;;;5065735;28;19923;-65
2022/05/13 14:27:12;;;;;;;;;;;17.30;76.30;;;;;;5065436;28;19928;-65
2022/05/13 14:29:38;;;;;;;;;;;17.20;75.50;;;;;;5065564;28;20411;-65
2022/05/13 14:32:06;;;;;;;;;;;17.00;77.00;;;;;;5064119;28;20015;-66
2022/05/13 14:34:32;;;;;;;;;;;17.00;78.60;;;;;;5065696;28;19928;-65
2022/05/13 14:36:58;;;;;;;;;;;17.00;78.80;;;;;;5065296;28;19920;-65
2022/05/13 14:39:50;;;;;;;;;;;17.00;77.90;;;;;;5066011;28;19923;-65
2022/05/13 14:42:36;;;;;;;;;;;16.70;78.60;;;;;;5064682;28;19926;-64
2022/05/13 14:45:21;;;;;;;;;;;16.70;76.30;;;;;;5065116;28;19920;-65